createdAt,value
2017-11-19T00:01:39.675Z,79.03
2017-11-19T00:04:07.143Z,79.13
2017-11-19T00:06:34.794Z,79.58
2017-11-19T00:09:02.247Z,79.70
2017-11-19T00:11:29.709Z,78.99
2017-11-19T00:13:57.181Z,79.30
2017-11-19T00:16:24.633Z,79.49
2017-11-19T00:18:52.104Z,79.58
2017-11-19T00:21:19.562Z,79.71
2017-11-19T00:23:47.038Z,80.19
2017-11-19T00:26:14.479Z,80.10
2017-11-19T00:28:41.956Z,80.67
2017-11-19T00:31:09.763Z,81.59
2017-11-19T00:33:37.251Z,80.72
2017-11-19T00:36:04.697Z,81.38
2017-11-19T00:38:32.142Z,81.48
2017-11-19T00:40:59.637Z,81.59
2017-11-19T00:43:28.905Z,81.45
2017-11-19T00:45:56.384Z,82.05
2017-11-19T00:48:23.835Z,81.90
2017-11-19T00:50:51.306Z,82.28
2017-11-19T00:53:18.795Z,82.61
2017-11-19T00:55:46.270Z,82.67
2017-11-19T00:58:13.749Z,82.87
2017-11-19T01:00:41.208Z,83.23
2017-11-19T01:03:08.666Z,83.35
2017-11-19T01:05:38.144Z,83.56
2017-11-19T01:08:05.710Z,83.52
2017-11-19T01:10:33.177Z,83.08
2017-11-19T01:13:00.664Z,83.52
2017-11-19T01:15:28.125Z,83.00
2017-11-19T01:17:55.620Z,83.74
2017-11-19T01:20:23.078Z,83.69
2017-11-19T01:22:50.554Z,83.85
2017-11-19T01:25:18.001Z,83.20
2017-11-19T01:27:45.464Z,84.44
2017-11-19T01:30:12.930Z,85.06
2017-11-19T01:32:40.383Z,84.77
2017-11-19T01:35:07.869Z,85.60
2017-11-19T01:37:35.524Z,86.99
2017-11-19T01:40:02.987Z,86.26
2017-11-19T01:42:30.446Z,87.15
2017-11-19T01:44:57.929Z,86.69
2017-11-19T01:47:25.412Z,87.60
2017-11-19T01:49:52.903Z,88.37
2017-11-19T01:52:20.364Z,87.51
2017-11-19T01:54:47.847Z,88.00
2017-11-19T01:57:15.311Z,88.04
2017-11-19T01:59:42.789Z,87.02
2017-11-19T02:02:10.243Z,88.11
2017-11-19T02:04:37.743Z,86.77
2017-11-19T02:07:05.223Z,87.39
2017-11-19T02:09:32.701Z,86.93
2017-11-19T02:12:00.166Z,86.70
2017-11-19T02:14:27.650Z,87.04
2017-11-19T02:16:55.162Z,86.42
2017-11-19T02:19:22.612Z,86.02
2017-11-19T02:21:50.086Z,86.19
2017-11-19T02:24:17.579Z,85.77
2017-11-19T02:26:45.043Z,85.87
2017-11-19T02:29:12.503Z,85.61
2017-11-19T02:31:39.983Z,86.08
2017-11-19T02:34:07.446Z,84.90
2017-11-19T02:36:35.082Z,86.47
2017-11-19T02:39:02.538Z,85.58
2017-11-19T02:41:29.995Z,85.87
2017-11-19T02:43:57.508Z,86.75
2017-11-19T02:46:24.975Z,85.93
2017-11-19T02:48:52.434Z,86.22
2017-11-19T02:51:19.911Z,85.38
2017-11-19T02:53:47.371Z,85.87
2017-11-19T02:56:14.854Z,86.21
2017-11-19T02:58:42.321Z,85.70
2017-11-19T03:01:09.798Z,85.17
2017-11-19T03:03:37.292Z,85.61
2017-11-19T03:06:04.758Z,86.12
2017-11-19T03:08:32.227Z,86.18
2017-11-19T03:10:59.689Z,85.77
2017-11-19T03:13:27.186Z,85.28
2017-11-19T03:15:54.667Z,85.96
2017-11-19T03:18:22.141Z,86.23
2017-11-19T03:20:49.633Z,85.81
2017-11-19T03:23:17.090Z,86.21
2017-11-19T03:25:44.563Z,85.67
2017-11-19T03:28:12.023Z,86.25
2017-11-19T03:30:39.505Z,86.80
2017-11-19T03:33:06.966Z,86.18
2017-11-19T03:35:34.438Z,86.49
2017-11-19T03:38:01.923Z,87.22
2017-11-19T03:40:29.406Z,86.84
2017-11-19T03:42:56.886Z,87.11
2017-11-19T03:45:24.336Z,87.51
2017-11-19T03:47:51.786Z,87.92
2017-11-19T03:50:19.276Z,88.04
2017-11-19T03:52:47.075Z,88.79
2017-11-19T03:55:14.566Z,88.75
2017-11-19T03:57:42.019Z,89.56
2017-11-19T04:00:09.484Z,89.80
2017-11-19T04:02:36.959Z,89.81
2017-11-19T04:05:04.418Z,90.11
2017-11-19T04:07:31.885Z,89.67
2017-11-19T04:09:59.339Z,89.71
2017-11-19T04:12:26.815Z,89.58
2017-11-19T04:14:54.271Z,89.92
2017-11-19T04:17:21.739Z,90.17
2017-11-19T04:19:49.223Z,91.34
2017-11-19T04:22:16.713Z,89.83
2017-11-19T04:24:44.194Z,90.90
2017-11-19T04:27:11.642Z,91.32
2017-11-19T04:29:39.139Z,91.25
2017-11-19T04:32:06.632Z,91.45
2017-11-19T04:34:34.095Z,89.88
2017-11-19T04:37:01.555Z,89.65
2017-11-19T04:39:29.031Z,90.39
2017-11-19T04:41:56.511Z,92.17
2017-11-19T04:44:23.963Z,93.39
2017-11-19T04:46:51.419Z,94.41
2017-11-19T04:49:18.911Z,96.34
2017-11-19T04:51:46.363Z,97.83
2017-11-19T04:54:13.823Z,99.28
2017-11-19T04:56:41.304Z,99.50
2017-11-19T04:59:08.800Z,100.00
2017-11-19T05:01:36.287Z,100.00
2017-11-19T05:04:03.749Z,100.00
2017-11-19T05:06:31.228Z,100.00
2017-11-19T05:08:58.688Z,100.00
2017-11-19T05:11:26.575Z,100.00
2017-11-19T05:13:54.045Z,100.00
2017-11-19T05:16:21.511Z,100.00
2017-11-19T05:18:49.007Z,100.00
2017-11-19T05:21:16.473Z,100.00
2017-11-19T05:23:43.955Z,100.00
2017-11-19T05:26:11.424Z,100.00
2017-11-19T05:28:38.908Z,100.00
2017-11-19T05:31:06.366Z,100.00
2017-11-19T05:33:33.851Z,100.00
2017-11-19T05:36:01.308Z,100.00
2017-11-19T05:38:28.797Z,100.00
2017-11-19T05:40:56.260Z,100.00
2017-11-19T05:43:23.747Z,100.00
2017-11-19T05:45:51.206Z,100.00
2017-11-19T05:48:18.671Z,100.00
2017-11-19T05:50:46.154Z,100.00
2017-11-19T05:53:13.626Z,100.00
2017-11-19T05:55:41.127Z,100.00
2017-11-19T05:58:08.606Z,100.00
2017-11-19T06:00:36.084Z,100.00
2017-11-19T06:03:03.556Z,100.00
2017-11-19T06:05:31.043Z,100.00
2017-11-19T06:07:58.500Z,100.00
2017-11-19T06:10:25.978Z,100.00
2017-11-19T06:12:53.470Z,100.00
2017-11-19T06:15:20.939Z,100.00
2017-11-19T06:17:48.396Z,100.00
2017-11-19T06:20:15.874Z,100.00
2017-11-19T06:22:43.356Z,100.00
2017-11-19T06:25:10.819Z,100.00
2017-11-19T06:27:38.310Z,100.00
2017-11-19T06:30:05.775Z,100.00
2017-11-19T06:32:33.258Z,100.00
2017-11-19T06:35:00.746Z,100.00
2017-11-19T06:37:28.216Z,100.00
2017-11-19T06:39:55.700Z,100.00
2017-11-19T06:42:23.163Z,100.00
2017-11-19T06:44:50.642Z,100.00
2017-11-19T06:47:18.098Z,100.00
2017-11-19T06:49:45.578Z,100.00
2017-11-19T06:52:13.063Z,100.00
2017-11-19T06:54:40.518Z,100.00
2017-11-19T06:57:08.004Z,100.00
2017-11-19T06:59:35.466Z,100.00
2017-11-19T07:02:02.943Z,100.00
2017-11-19T07:04:30.447Z,100.00
2017-11-19T07:06:57.930Z,100.00
2017-11-19T07:09:25.420Z,100.00
2017-11-19T07:11:52.881Z,100.00
2017-11-19T07:14:20.362Z,100.00
2017-11-19T07:16:47.818Z,100.00
2017-11-19T07:19:15.282Z,100.00
2017-11-19T07:21:42.771Z,100.00
2017-11-19T07:24:10.243Z,100.00
2017-11-19T07:26:37.730Z,100.00
2017-11-19T07:29:05.214Z,100.00
2017-11-19T07:31:32.670Z,100.00
2017-11-19T07:34:00.163Z,100.00
2017-11-19T07:36:27.623Z,100.00
2017-11-19T07:38:55.102Z,100.00
2017-11-19T07:41:22.602Z,100.00
2017-11-19T07:43:50.070Z,100.00
2017-11-19T07:46:17.550Z,100.00
2017-11-19T07:48:45.014Z,100.00
2017-11-19T07:51:12.495Z,100.00
2017-11-19T07:53:39.963Z,100.00
2017-11-19T07:56:07.445Z,100.00
2017-11-19T07:58:34.928Z,100.00
2017-11-19T08:01:02.391Z,100.00
2017-11-19T08:03:29.877Z,100.00
2017-11-19T08:05:57.343Z,100.00
2017-11-19T08:08:24.806Z,100.00
2017-11-19T08:10:52.282Z,100.00
2017-11-19T08:13:19.752Z,100.00
2017-11-19T08:15:47.235Z,100.00
2017-11-19T08:18:14.738Z,100.00
2017-11-19T08:20:42.175Z,100.00
2017-11-19T08:23:10.611Z,100.00
2017-11-19T08:25:38.075Z,100.00
2017-11-19T08:28:05.558Z,100.00
2017-11-19T08:30:33.020Z,100.00
2017-11-19T08:33:00.493Z,100.00
2017-11-19T08:35:27.987Z,100.00
2017-11-19T08:37:55.755Z,100.00
2017-11-19T08:40:23.246Z,100.00
2017-11-19T08:42:50.755Z,100.00
2017-11-19T08:45:18.216Z,100.00
2017-11-19T08:47:45.683Z,100.00
2017-11-19T08:50:13.174Z,100.00
2017-11-19T08:52:40.658Z,100.00
2017-11-19T08:55:08.138Z,100.00
2017-11-19T08:57:35.619Z,100.00
2017-11-19T09:00:03.109Z,100.00
2017-11-19T09:02:30.591Z,100.00
2017-11-19T09:04:58.108Z,100.00
2017-11-19T09:07:25.581Z,100.00
2017-11-19T09:09:53.047Z,100.00
2017-11-19T09:12:20.637Z,100.00
2017-11-19T09:14:48.519Z,100.00
2017-11-19T09:17:16.016Z,100.00
2017-11-19T09:19:43.497Z,100.00
2017-11-19T09:22:11.002Z,100.00
2017-11-19T09:24:38.493Z,100.00
2017-11-19T09:27:05.964Z,100.00
2017-11-19T09:29:34.889Z,100.00
2017-11-19T09:32:02.356Z,100.00
2017-11-19T09:34:29.832Z,100.00
2017-11-19T09:36:57.319Z,100.00
2017-11-19T09:39:24.777Z,100.00
2017-11-19T09:41:52.290Z,100.00
2017-11-19T09:44:19.733Z,100.00
2017-11-19T09:46:47.224Z,100.00
2017-11-19T09:49:14.694Z,100.00
2017-11-19T09:51:42.155Z,100.00
2017-11-19T09:54:09.652Z,100.00
2017-11-19T09:56:37.113Z,100.00
2017-11-19T09:59:04.620Z,100.00
2017-11-19T10:01:32.084Z,100.00
2017-11-19T10:03:59.539Z,100.00
2017-11-19T10:06:27.019Z,100.00
2017-11-19T10:08:54.473Z,100.00
2017-11-19T10:11:21.966Z,100.00
2017-11-19T10:13:49.435Z,100.00
2017-11-19T10:16:16.907Z,100.00
2017-11-19T10:18:44.356Z,100.00
2017-11-19T10:21:11.843Z,100.00
2017-11-19T10:23:39.321Z,100.00
2017-11-19T10:26:06.796Z,100.00
2017-11-19T10:28:34.268Z,100.00
2017-11-19T10:31:01.726Z,100.00
2017-11-19T10:33:29.223Z,100.00
2017-11-19T10:35:56.704Z,100.00
2017-11-19T10:38:24.173Z,100.00
2017-11-19T10:40:51.656Z,100.00
2017-11-19T10:43:19.138Z,100.00
2017-11-19T10:45:46.630Z,100.00
2017-11-19T10:48:14.074Z,100.00
2017-11-19T10:50:41.554Z,100.00
2017-11-19T10:53:09.051Z,100.00
2017-11-19T10:55:36.523Z,100.00
2017-11-19T10:58:03.982Z,100.00
2017-11-19T11:00:31.465Z,100.00
2017-11-19T11:02:58.926Z,100.00
2017-11-19T11:05:26.399Z,100.00
2017-11-19T11:07:53.882Z,100.00
2017-11-19T11:10:21.347Z,100.00
2017-11-19T11:12:48.838Z,100.00
2017-11-19T11:15:16.287Z,100.00
2017-11-19T11:17:43.762Z,100.00
2017-11-19T11:20:11.216Z,100.00
2017-11-19T11:22:38.671Z,100.00
2017-11-19T11:25:06.164Z,100.00
2017-11-19T11:27:33.641Z,100.00
2017-11-19T11:30:01.129Z,100.00
2017-11-19T11:32:28.579Z,100.00
2017-11-19T11:34:56.077Z,100.00
2017-11-19T11:37:23.544Z,100.00
2017-11-19T11:39:51.058Z,100.00
2017-11-19T11:42:18.514Z,100.00
2017-11-19T11:44:45.992Z,100.00
2017-11-19T11:47:13.451Z,100.00
2017-11-19T11:49:41.236Z,100.00
2017-11-19T11:52:08.700Z,100.00
2017-11-19T11:54:36.148Z,100.00
2017-11-19T11:57:03.639Z,100.00
2017-11-19T11:59:31.092Z,100.00
2017-11-19T12:01:58.581Z,100.00
2017-11-19T12:04:26.073Z,100.00
2017-11-19T12:06:53.572Z,100.00
2017-11-19T12:09:21.022Z,100.00
2017-11-19T12:11:48.494Z,100.00
2017-11-19T12:14:15.946Z,100.00
2017-11-19T12:16:43.510Z,100.00
2017-11-19T12:19:10.970Z,100.00
2017-11-19T12:21:38.446Z,100.00
2017-11-19T12:24:05.937Z,100.00
2017-11-19T12:26:33.414Z,100.00
2017-11-19T12:29:00.861Z,100.00
2017-11-19T12:31:28.758Z,100.00
2017-11-19T12:33:56.235Z,100.00
2017-11-19T12:36:23.691Z,100.00
2017-11-19T12:38:51.922Z,100.00
2017-11-19T12:41:19.374Z,100.00
2017-11-19T12:43:46.851Z,100.00
2017-11-19T12:46:14.303Z,100.00
2017-11-19T12:48:42.025Z,100.00
2017-11-19T12:51:10.195Z,100.00
2017-11-19T12:53:37.647Z,100.00
2017-11-19T12:56:05.123Z,100.00
2017-11-19T12:58:32.604Z,99.97
2017-11-19T13:01:00.052Z,97.32
2017-11-19T13:03:27.523Z,94.32
2017-11-19T13:05:54.969Z,88.01
2017-11-19T13:08:22.445Z,89.62
2017-11-19T13:10:49.899Z,92.82
2017-11-19T13:13:17.377Z,95.45
2017-11-19T13:15:44.828Z,95.80
2017-11-19T13:18:12.516Z,96.16
2017-11-19T13:20:40.007Z,97.01
2017-11-19T13:23:07.461Z,96.37
2017-11-19T13:25:34.909Z,97.92
2017-11-19T13:28:02.380Z,96.99
2017-11-19T13:30:29.856Z,96.42
2017-11-19T13:32:57.469Z,95.94
2017-11-19T13:35:25.079Z,98.97
2017-11-19T13:37:52.844Z,97.25
2017-11-19T13:40:20.298Z,95.26
2017-11-19T13:42:47.756Z,96.79
2017-11-19T13:45:15.224Z,94.85
2017-11-19T13:47:43.869Z,94.60
2017-11-19T13:50:11.850Z,92.54
2017-11-19T13:52:39.327Z,93.50
2017-11-19T13:55:06.790Z,94.97
2017-11-19T13:57:35.002Z,93.29
2017-11-19T14:00:02.741Z,94.58
2017-11-19T14:02:30.532Z,93.03
2017-11-19T14:04:58.041Z,86.18
2017-11-19T14:07:26.015Z,84.39
2017-11-19T14:09:53.489Z,82.47
2017-11-19T14:12:20.954Z,87.04
2017-11-19T14:14:48.947Z,88.95
2017-11-19T14:17:17.366Z,90.68
2017-11-19T14:19:45.906Z,91.14
2017-11-19T14:22:13.354Z,90.02
2017-11-19T14:24:40.831Z,88.23
2017-11-19T14:27:08.302Z,89.54
2017-11-19T14:29:35.784Z,91.08
2017-11-19T14:32:03.261Z,91.42
2017-11-19T14:34:30.730Z,91.02
2017-11-19T14:36:58.209Z,92.24
2017-11-19T14:39:25.658Z,92.37
2017-11-19T14:41:53.157Z,92.99
2017-11-19T14:44:20.603Z,92.18
2017-11-19T14:46:48.051Z,93.49
2017-11-19T14:49:15.525Z,93.32
2017-11-19T14:51:43.017Z,93.25
2017-11-19T14:54:10.491Z,92.64
2017-11-19T14:56:37.940Z,93.95
2017-11-19T14:59:05.427Z,94.13
2017-11-19T15:01:32.890Z,94.59
2017-11-19T15:04:00.346Z,94.09
2017-11-19T15:06:27.838Z,95.13
2017-11-19T15:08:55.300Z,96.52
2017-11-19T15:11:22.752Z,97.45
2017-11-19T15:13:50.218Z,98.86
2017-11-19T15:16:17.688Z,100.00
2017-11-19T15:18:45.144Z,100.00
2017-11-19T15:21:12.618Z,100.00
2017-11-19T15:23:40.070Z,100.00
2017-11-19T15:26:07.528Z,100.00
2017-11-19T15:28:35.004Z,100.00
2017-11-19T15:31:02.471Z,100.00
2017-11-19T15:33:30.205Z,100.00
2017-11-19T15:35:57.778Z,100.00
2017-11-19T15:38:25.240Z,100.00
2017-11-19T15:40:52.733Z,100.00
2017-11-19T15:43:20.194Z,100.00
2017-11-19T15:45:47.641Z,100.00
2017-11-19T15:48:15.687Z,100.00
2017-11-19T15:50:43.130Z,100.00
2017-11-19T15:53:11.339Z,100.00
2017-11-19T15:55:38.787Z,100.00
2017-11-19T15:58:07.268Z,100.00
2017-11-19T16:00:34.726Z,100.00
2017-11-19T16:03:02.979Z,100.00
2017-11-19T16:05:30.963Z,100.00
2017-11-19T16:07:58.431Z,100.00
2017-11-19T16:10:26.054Z,100.00
2017-11-19T16:12:53.501Z,100.00
2017-11-19T16:15:20.951Z,100.00
2017-11-19T16:17:48.558Z,100.00
2017-11-19T16:20:16.014Z,100.00
2017-11-19T16:22:43.511Z,100.00
2017-11-19T16:25:11.522Z,100.00
2017-11-19T16:27:39.013Z,100.00
2017-11-19T16:30:06.503Z,100.00
2017-11-19T16:32:33.964Z,100.00
2017-11-19T16:35:01.661Z,100.00
2017-11-19T16:37:30.018Z,100.00
2017-11-19T16:39:57.476Z,99.05
2017-11-19T16:42:24.946Z,98.99
2017-11-19T16:44:52.401Z,98.74
2017-11-19T16:47:19.866Z,98.01
2017-11-19T16:49:47.347Z,97.93
2017-11-19T16:52:14.799Z,96.50
2017-11-19T16:54:42.290Z,97.02
2017-11-19T16:57:09.731Z,95.78
2017-11-19T16:59:37.206Z,94.40
2017-11-19T17:02:04.676Z,94.98
2017-11-19T17:04:32.143Z,94.55
2017-11-19T17:06:59.619Z,95.32
2017-11-19T17:09:27.067Z,96.14
2017-11-19T17:11:54.534Z,95.14
2017-11-19T17:14:21.992Z,96.95
2017-11-19T17:16:49.679Z,95.61
2017-11-19T17:19:17.126Z,96.22
2017-11-19T17:21:44.698Z,95.93
2017-11-19T17:24:12.192Z,95.99
2017-11-19T17:26:39.678Z,96.17
2017-11-19T17:29:07.135Z,95.39
2017-11-19T17:31:34.609Z,98.02
2017-11-19T17:34:02.059Z,97.34
2017-11-19T17:36:34.395Z,97.85
2017-11-19T17:39:01.939Z,98.30
2017-11-19T17:41:29.410Z,96.34
2017-11-19T17:43:56.923Z,95.66
2017-11-19T17:46:24.407Z,96.32
2017-11-19T17:48:51.859Z,95.16
2017-11-19T17:51:19.350Z,94.83
2017-11-19T17:53:46.841Z,94.00
2017-11-19T17:56:14.580Z,91.67
2017-11-19T17:58:42.033Z,90.61
2017-11-19T18:01:09.479Z,91.30
2017-11-19T18:03:36.965Z,92.95
2017-11-19T18:06:04.417Z,89.90
2017-11-19T18:08:31.891Z,92.33
2017-11-19T18:10:59.363Z,92.41
2017-11-19T18:13:26.840Z,93.35
2017-11-19T18:15:55.123Z,92.91
2017-11-19T18:18:22.608Z,92.59
2017-11-19T18:20:50.072Z,93.07
2017-11-19T18:23:17.578Z,91.96
2017-11-19T18:25:45.632Z,92.12
2017-11-19T18:28:13.097Z,91.61
2017-11-19T18:30:40.859Z,91.83
2017-11-19T18:33:08.325Z,92.04
2017-11-19T18:35:35.776Z,91.50
2017-11-19T18:38:03.535Z,91.46
2017-11-19T18:40:30.993Z,89.82
2017-11-19T18:42:58.439Z,90.92
2017-11-19T18:45:26.622Z,91.58
2017-11-19T18:47:54.099Z,92.44
2017-11-19T18:50:21.577Z,92.18
2017-11-19T18:52:49.046Z,92.90
2017-11-19T18:55:16.927Z,93.90
2017-11-19T18:57:44.399Z,94.01
2017-11-19T19:00:11.840Z,94.71
2017-11-19T19:02:39.277Z,95.69
2017-11-19T19:05:06.745Z,94.03
2017-11-19T19:07:34.240Z,93.40
2017-11-19T19:10:01.728Z,93.86
2017-11-19T19:12:29.189Z,94.24
2017-11-19T19:14:56.670Z,94.16
2017-11-19T19:17:24.129Z,94.59
2017-11-19T19:19:51.602Z,94.86
2017-11-19T19:22:19.405Z,93.32
2017-11-19T19:24:48.140Z,93.69
2017-11-19T19:27:16.434Z,94.73
2017-11-19T19:29:43.953Z,95.34
2017-11-19T19:32:11.456Z,93.57
2017-11-19T19:34:38.951Z,94.21
2017-11-19T19:37:06.441Z,94.06
2017-11-19T19:39:33.948Z,95.00
2017-11-19T19:42:01.415Z,95.12
2017-11-19T19:44:28.916Z,94.66
2017-11-19T19:46:56.407Z,97.06
2017-11-19T19:49:23.882Z,98.49
2017-11-19T19:51:51.549Z,99.88
2017-11-19T19:54:19.021Z,99.89
2017-11-19T19:56:46.527Z,100.00
2017-11-19T19:59:14.060Z,100.00
2017-11-19T20:01:41.544Z,100.00
2017-11-19T20:04:09.058Z,100.00
2017-11-19T20:06:36.543Z,100.00
2017-11-19T20:09:04.042Z,100.00
2017-11-19T20:11:31.522Z,100.00
2017-11-19T20:13:58.995Z,100.00
2017-11-19T20:16:26.608Z,100.00
2017-11-19T20:18:54.097Z,100.00
2017-11-19T20:21:21.585Z,100.00
2017-11-19T20:23:49.084Z,100.00
2017-11-19T20:26:16.603Z,100.00
2017-11-19T20:28:44.080Z,100.00
2017-11-19T20:31:11.601Z,100.00
2017-11-19T20:33:39.135Z,100.00
2017-11-19T20:36:06.652Z,100.00
2017-11-19T20:38:34.171Z,100.00
2017-11-19T20:41:01.688Z,100.00
2017-11-19T20:43:29.180Z,100.00
2017-11-19T20:45:57.016Z,100.00
2017-11-19T20:48:24.500Z,100.00
2017-11-19T20:50:51.975Z,100.00
2017-11-19T20:53:19.473Z,100.00
2017-11-19T20:55:46.976Z,100.00
2017-11-19T20:58:14.467Z,100.00
2017-11-19T21:00:42.003Z,100.00
2017-11-19T21:03:09.476Z,100.00
2017-11-19T21:05:38.589Z,100.00
2017-11-19T21:08:06.278Z,100.00
2017-11-19T21:10:33.742Z,100.00
2017-11-19T21:13:01.212Z,100.00
2017-11-19T21:15:28.707Z,100.00
2017-11-19T21:17:56.163Z,100.00
2017-11-19T21:20:23.637Z,100.00
2017-11-19T21:22:51.128Z,100.00
2017-11-19T21:25:18.624Z,100.00
2017-11-19T21:27:46.084Z,100.00
2017-11-19T21:30:13.582Z,100.00
2017-11-19T21:32:41.030Z,100.00
2017-11-19T21:35:08.486Z,100.00
2017-11-19T21:37:35.979Z,100.00
2017-11-19T21:40:03.437Z,100.00
2017-11-19T21:42:30.906Z,100.00
2017-11-19T21:44:58.384Z,100.00
2017-11-19T21:47:25.866Z,99.26
2017-11-19T21:49:53.328Z,97.09
2017-11-19T21:52:20.805Z,98.93
2017-11-19T21:54:48.277Z,98.03
2017-11-19T21:57:15.735Z,99.12
2017-11-19T21:59:43.219Z,97.73
2017-11-19T22:02:10.666Z,99.13
2017-11-19T22:04:38.149Z,98.04
2017-11-19T22:07:05.626Z,99.08
2017-11-19T22:09:33.071Z,98.05
2017-11-19T22:12:00.515Z,97.80
2017-11-19T22:14:27.994Z,98.40
2017-11-19T22:16:55.781Z,100.00
2017-11-19T22:19:23.238Z,100.00
2017-11-19T22:21:50.698Z,100.00
2017-11-19T22:24:18.168Z,100.00
2017-11-19T22:26:45.629Z,100.00
2017-11-19T22:29:13.377Z,100.00
2017-11-19T22:31:40.828Z,100.00
2017-11-19T22:34:08.274Z,100.00
2017-11-19T22:36:35.747Z,100.00
2017-11-19T22:39:03.319Z,100.00
2017-11-19T22:41:30.790Z,100.00
2017-11-19T22:43:58.262Z,100.00
2017-11-19T22:46:25.743Z,100.00
2017-11-19T22:48:53.203Z,100.00
2017-11-19T22:51:20.681Z,100.00
2017-11-19T22:53:48.126Z,100.00
2017-11-19T22:56:15.583Z,100.00
2017-11-19T22:58:43.060Z,100.00
2017-11-19T23:01:10.746Z,100.00
2017-11-19T23:03:39.060Z,100.00
2017-11-19T23:06:06.534Z,100.00
2017-11-19T23:08:33.978Z,100.00
2017-11-19T23:11:01.450Z,100.00
2017-11-19T23:13:28.924Z,100.00
2017-11-19T23:15:56.375Z,100.00
2017-11-19T23:18:23.851Z,100.00
2017-11-19T23:20:51.334Z,100.00
2017-11-19T23:23:18.779Z,100.00
2017-11-19T23:25:46.250Z,100.00
2017-11-19T23:28:13.714Z,100.00
2017-11-19T23:30:41.178Z,100.00
2017-11-19T23:33:08.654Z,100.00
2017-11-19T23:35:36.135Z,100.00
2017-11-19T23:38:03.652Z,100.00
2017-11-19T23:40:31.139Z,100.00
2017-11-19T23:42:58.611Z,100.00
2017-11-19T23:45:26.080Z,100.00
2017-11-19T23:47:53.573Z,100.00
2017-11-19T23:50:21.018Z,100.00
2017-11-19T23:52:48.495Z,100.00
2017-11-19T23:55:15.969Z,100.00
2017-11-19T23:57:43.441Z,100.00
